Terminal Aerodrome Forecast
Issued by NWS Nashville, TN

Home | Current Version | Previous Version | Text Only | Print | Product List | Glossary On
Versions: 1 2 3 4 5 6 7 8 9 10 11 12 13 14
000
FTUS44 KOHX 261739
TAFBNA
TAF
KBNA 261739Z 2618/2718 23005KT P6SM SCT040 BKN070
     FM270200 20003KT P6SM SKC
     FM271600 24007KT P6SM SCT040 BKN250=

USA.gov is the U.S. government's official web portal to all federal, state and local government web resources and services.